Green Bay, WI (54311)

3:58 AM CST on March 03, 2015 (GMT -0600)
Nicolet Drive | Change Station
CLOSE
Current Station
Personal Weather Station
Location: Green Bay, WI
Elevation: 574 ft
Nearby Weather Stations
Active Advisory: Winter Weather Advisory

Elev 574 ft 44.54 °N, 87.92 °W | Updated 4 seconds ago

Overcast
Overcast
22.7 °F
Feels Like 23 °F
N
0.0
Wind Variable Wind from East
Gusts 2.0 mph

Today
High -- | Low -- °F
--% Chance of Precip.
Yesterday
High -- | Low -- °F
Precip. -- in
6:25 AM 5:41 PM
Waxing Gibbous, 95% visible
Pressure 30.05 in
Visibility 7.0 miles
Clouds Overcast 8500 ft
Windchill 23 °F
Dew Point 20 °F
Humidity 89%
Rainfall 0.00 in
Snow Depth Not available.
UV 0.0 out of 12
Pollen .30 out of 12
Air Quality Not available.
Flu Activity Not available.
METAR KGRB 030953Z AUTO 15007KT 7SM OVC085 M05/M07 A3001 RMK AO2 PRESFR SLP174 T10501067

More Conditions Fewer Conditions

Pressure 30.05 in
Visibility 7.0 miles
Clouds Overcast 8500 ft
Windchill 23 °F
Dew Point 20 °F
Humidity 89%
Rainfall 0.00 in
Snow Depth Not available.
UV 0.0 out of 12
Pollen .30 out of 12
Air Quality Not available.
Flu Activity Not available.
METAR KGRB 030953Z AUTO 15007KT 7SM OVC085 M05/M07 A3001 RMK AO2 PRESFR SLP174 T10501067

More Conditions Fewer Conditions

10-Day Weather Forecast

Almanac

Astronomy

Mar. 03, 2015 Rise Set
Actual Time
Civil Twilight
Nautical Twilight
Astronomical Twilight
Moon
Length of Visible Light
Length of Day
Tomorrow will be .
, % of the Moon is Illuminated

Today's Extremes

State Highs State Lows

Community

WunderPhotos

Upload Photos

1,802,075 photos uploaded!

WunderBlogs® & News

Nearby

Air Quality

  Air Quality AQ Index Pollutant
Not available.

Snow Depth

Station Depth Elevation

Earthquake Activity

City Distance Mag. Time & Date
Minimum magnitude displayed is 2.5.

Coastal Water Temperatures

Place Temperature

Nearby Weather Stations

Winter Weather Advisory
Statement as of 10:38 PM CST on March 02, 2015

... Winter Weather Advisory remains in effect from 6 am to 6 PM
CST Tuesday...

* a period of light snow or flurries is possible late tonight.

* The main band of snow is expected to push through the area
Tuesday. The heaviest snow will fall during the middle to late
morning hours. With the snow tapering to flurries during the
middle to late afternoon.

* A total snow accumulation of 3 to 4 inches is expected.

* Travel conditions may become hazardous due to snow covered
roads and reduced visibility.

Precautionary/preparedness actions...

A Winter Weather Advisory for snow means that periods of snow
will cause some travel difficulties. Be prepared for snow covered
roads and limited visibilities... and use caution while driving.
The latest Wisconsin Road conditions can be obtained by calling
511.